Flight Track Log - Related Links

Times and Time Zones

All times are in EDT time to prevent confusion due to time zone crossing. See the ASQ5678 flight status page for this flight to view local times or setup timezone preferences in your user account.

Time Position Orientation Groundspeed Altitude Reporting Facility
EDT Latitude Longitude Course Direction KTS MPH feet Rate Location/Type
Fri 01:47:50 PM 29.9617 -95.3436 90° East 165 190 700  Level Houston Center
Fri 01:48:58 PM 29.9411 -95.2786 110° East 234 269 2,500 1,581 Climbing Houston Center
Fri 01:49:59 PM 29.9314 -95.1978 98° East 253 291 4,100 1,574 Climbing Houston Center
Fri 01:51:00 PM 29.9347 -95.1203 87° East 252 290 5,700 1,967 Climbing Houston Center
Fri 01:52:01 PM 29.9417 -95.0372 84° East 257 296 8,100 1,987 Climbing Houston Center
Fri 01:53:00 PM 29.9834 -94.7203 90° East  Level FlightAware Approximate
Fri 01:53:31 PM 29.9511 -94.9183 85° East 259 298 10,700  Level Houston Center
Fri 01:54:33 PM 29.9583 -94.8169 85° East 301 346 11,600 1,065 Climbing Houston Center
Fri 01:55:35 PM 29.9672 -94.7022 85° East 329 379 12,900 1,210 Climbing Houston Center
Fri 01:56:37 PM 29.9753 -94.5886 85° East 348 400 14,100 1,065 Climbing Houston Center
Fri 01:57:39 PM 29.9858 -94.4736 84° East 358 412 15,100 968 Climbing Houston Center
Fri 01:58:41 PM 29.9967 -94.3553 84° East 369 425 16,100 919 Climbing Houston Center
Fri 01:59:43 PM 30.0103 -94.2108 84° East 378 435 17,000 435 Climbing Houston Center
Fri 02:00:45 PM 30.0217 -94.0836 84° East 397 457 17,000 -48 Level Houston Center
Fri 02:01:47 PM 30.0336 -93.9569 84° East 399 459 16,900 -48 Descending Houston Center
Fri 02:02:49 PM 30.0447 -93.8297 84° East 401 461 16,900  Level Houston Center
Fri 02:03:51 PM 30.0553 -93.7022 85° East 403 464 16,900  Level Houston Center
Fri 02:04:53 PM 30.0683 -93.5497 84° East 403 464 16,900  Level Houston Center
Fri 02:05:55 PM 30.0789 -93.4242 84° East 399 459 16,900  Level Houston Center
Fri 02:06:57 PM 30.0900 -93.3008 84° East 392 451 16,900  Level Houston Center
Fri 02:07:59 PM 30.1000 -93.1781 85° East 389 448 16,900 -432 Level Houston Center
Fri 02:09:02 PM 30.1111 -93.0328 85° East 384 442 16,000 -1,008 Descending Houston Center
Fri 02:10:04 PM 30.1208 -92.9156 84° East 373 429 14,800 -1,161 Descending Houston Center
Fri 02:11:06 PM 30.1308 -92.7997 84° East 368 423 13,600 -1,500 Descending Houston Center
Fri 02:12:08 PM 30.1386 -92.6947 85° East 341 392 11,700 -1,306 Descending Houston Center
Fri 02:13:10 PM 30.1472 -92.5986 84° East 312 359 10,900 -1,210 Descending Houston Center
Fri 02:14:12 PM 30.1536 -92.5144 85° East 277 319 9,200 -1,839 Descending Houston Center
Fri 02:15:14 PM 30.1542 -92.4142 90° East 262 302 7,100 -1,790 Descending Houston Center
Fri 02:16:16 PM 30.1478 -92.3361 95° East 251 289 5,500 -1,452 Descending Houston Center
Fri 02:17:18 PM 30.1417 -92.2611 95° East 240 276 4,100 -1,248 Descending Houston Center
Fri 02:18:21 PM 30.1350 -92.1878 96° East 232 267 2,900 -912 Descending Houston Center
Fri 02:19:23 PM 30.1297 -92.1039 94° East 232 267 2,200 -677 Descending Houston Center

Login

Don't have an account? Register now (free) for customized features, flight alerts, and more!